createdAt,value
2023-07-08T00:00:16.143Z,61.5
2023-07-08T00:05:22.246Z,61
2023-07-08T00:10:28.337Z,62
2023-07-08T00:15:34.408Z,61.5
2023-07-08T00:20:40.529Z,61.5
2023-07-08T00:25:46.613Z,62.5
2023-07-08T00:30:52.731Z,62.5
2023-07-08T00:35:58.818Z,63
2023-07-08T00:41:04.903Z,64
2023-07-08T00:46:11.013Z,63
2023-07-08T00:51:17.078Z,62.5
2023-07-08T00:56:23.344Z,64
2023-07-08T01:01:29.297Z,65
2023-07-08T01:06:35.369Z,64.5
2023-07-08T01:11:41.462Z,64.5
2023-07-08T01:16:47.760Z,66
2023-07-08T01:21:53.663Z,64.5
2023-07-08T01:26:59.780Z,65
2023-07-08T01:32:05.897Z,66
2023-07-08T01:37:11.925Z,65.5
2023-07-08T01:42:18.035Z,65.5
2023-07-08T01:47:24.160Z,65.5
2023-07-08T01:52:30.215Z,64.5
2023-07-08T01:57:36.533Z,65
2023-07-08T02:02:42.426Z,65
2023-07-08T02:07:48.788Z,64.5
2023-07-08T02:12:54.622Z,65
2023-07-08T02:18:00.698Z,64
2023-07-08T02:23:06.793Z,64
2023-07-08T02:28:12.879Z,64
2023-07-08T02:33:19.044Z,64
2023-07-08T02:38:25.074Z,65
2023-07-08T02:43:31.169Z,66.5
2023-07-08T02:48:37.350Z,65
2023-07-08T02:53:43.359Z,65.5
2023-07-08T02:58:49.436Z,66.5
2023-07-08T03:03:55.692Z,66.5
2023-07-08T03:09:01.788Z,65.5
2023-07-08T03:14:07.808Z,65.5
2023-07-08T03:19:13.817Z,64.5
2023-07-08T03:24:19.919Z,65.5
2023-07-08T03:29:26.039Z,66
2023-07-08T03:34:32.104Z,64
2023-07-08T03:39:38.204Z,65.5
2023-07-08T03:44:44.314Z,65.5
2023-07-08T03:49:50.438Z,66
2023-07-08T03:54:56.493Z,66
2023-07-08T04:00:02.861Z,67
2023-07-08T04:05:08.719Z,65
2023-07-08T04:10:14.824Z,66.5
2023-07-08T04:15:20.871Z,69.5
2023-07-08T04:20:27.051Z,75.5
2023-07-08T04:25:33.133Z,77
2023-07-08T04:30:39.170Z,76.5
2023-07-08T04:35:45.254Z,75.5
2023-07-08T04:40:51.339Z,76.5
2023-07-08T04:45:57.794Z,75
2023-07-08T04:51:03.544Z,76.5
2023-07-08T04:56:09.645Z,74
2023-07-08T05:01:16.023Z,75.5
2023-07-08T05:06:22.014Z,73
2023-07-08T05:11:27.922Z,73
2023-07-08T05:16:34.026Z,73
2023-07-08T05:21:40.157Z,73
2023-07-08T05:26:46.208Z,72.5
2023-07-08T05:31:52.318Z,72.5
2023-07-08T05:36:58.507Z,71
2023-07-08T05:42:04.466Z,72
2023-07-08T05:47:10.602Z,73.5
2023-07-08T05:52:16.702Z,73.5
2023-07-08T05:57:22.780Z,74.5
2023-07-08T06:02:28.932Z,72
2023-07-08T06:07:35.083Z,71
2023-07-08T06:12:41.047Z,71.5
2023-07-08T06:17:47.159Z,72.5
2023-07-08T06:22:54.236Z,72
2023-07-08T06:27:59.344Z,72
2023-07-08T06:33:05.462Z,70
2023-07-08T06:38:11.551Z,67
2023-07-08T06:43:17.641Z,61.5
2023-07-08T06:48:23.734Z,69
2023-07-08T06:53:29.830Z,65.5
2023-07-08T06:58:35.904Z,64.5
2023-07-08T07:03:42.028Z,67
2023-07-08T07:08:48.346Z,69.5
2023-07-08T07:13:54.220Z,65
2023-07-08T07:19:00.268Z,63.5
2023-07-08T07:24:06.376Z,64
2023-07-08T07:29:12.472Z,61
2023-07-08T07:34:18.589Z,58.5
2023-07-08T07:39:24.669Z,60.5
2023-07-08T07:44:30.997Z,59.5
2023-07-08T07:49:36.890Z,45.5
2023-07-08T07:54:42.948Z,51
2023-07-08T07:59:49.049Z,48.5
2023-07-08T08:04:55.150Z,41
2023-07-08T08:10:01.251Z,41.5
2023-07-08T08:15:07.339Z,40.5
2023-07-08T08:20:13.594Z,40
2023-07-08T08:25:19.548Z,43.5
2023-07-08T08:30:25.794Z,43
2023-07-08T08:35:31.859Z,51.5
2023-07-08T08:40:37.814Z,56
2023-07-08T08:45:43.921Z,54.5
2023-07-08T08:50:50.002Z,56.5
2023-07-08T08:55:56.118Z,51
2023-07-08T09:01:02.199Z,55.5
2023-07-08T09:06:08.296Z,50
2023-07-08T09:11:14.536Z,55.5
2023-07-08T09:16:20.622Z,53.5
2023-07-08T09:21:26.620Z,50
2023-07-08T09:26:32.699Z,52.5
2023-07-08T09:31:38.828Z,51
2023-07-08T09:36:44.873Z,53.5
2023-07-08T09:41:50.981Z,51
2023-07-08T09:46:57.096Z,48.5
2023-07-08T09:52:03.159Z,51.5
2023-07-08T09:57:09.552Z,49
2023-07-08T10:02:21.012Z,50
2023-07-08T10:07:27.378Z,47
2023-07-08T10:12:33.181Z,51
2023-07-08T10:17:39.277Z,49.5
2023-07-08T10:22:45.386Z,50.5
2023-07-08T10:27:51.497Z,52
2023-07-08T10:32:57.593Z,51
2023-07-08T10:38:03.668Z,49
2023-07-08T10:43:09.762Z,44.5
2023-07-08T10:48:17.556Z,44.5
2023-07-08T10:53:21.943Z,44
2023-07-08T10:58:28.043Z,43
2023-07-08T11:03:34.142Z,43
2023-07-08T11:08:40.236Z,45.5
2023-07-08T11:13:46.468Z,49
2023-07-08T11:18:52.419Z,44.5
2023-07-08T11:23:58.524Z,46
2023-07-08T11:29:04.640Z,47
2023-07-08T11:34:10.729Z,44
2023-07-08T11:39:16.817Z,42.5
2023-07-08T11:44:22.912Z,49
2023-07-08T11:49:29.252Z,45.5
2023-07-08T11:54:35.097Z,47
2023-07-08T11:59:41.187Z,44
2023-07-08T12:04:47.288Z,44.5
2023-07-08T12:09:53.372Z,45.5
2023-07-08T12:14:59.488Z,43.5
2023-07-08T12:20:05.748Z,41
2023-07-08T12:25:11.678Z,45
2023-07-08T12:30:17.795Z,46
2023-07-08T12:35:23.890Z,45
2023-07-08T12:40:29.985Z,44
2023-07-08T12:45:36.043Z,42
2023-07-08T12:50:42.132Z,42
2023-07-08T12:55:48.252Z,41
2023-07-08T13:00:54.333Z,44.5
2023-07-08T13:06:00.438Z,43
2023-07-08T13:11:06.524Z,44.5
2023-07-08T13:16:12.663Z,48.5
2023-07-08T13:21:18.734Z,44.5
2023-07-08T13:26:24.961Z,43
2023-07-08T13:31:30.994Z,44
2023-07-08T13:36:37.003Z,45.5
2023-07-08T13:41:43.101Z,44.5
2023-07-08T13:46:49.233Z,37.5
2023-07-08T13:51:55.297Z,41.5
2023-07-08T13:57:01.446Z,39
2023-07-08T14:02:07.516Z,39
2023-07-08T14:07:13.611Z,43.5
2023-07-08T14:12:20.944Z,40
2023-07-08T14:17:25.824Z,42
2023-07-08T14:22:31.889Z,36.5
2023-07-08T14:27:37.996Z,38.5
2023-07-08T14:32:44.080Z,40.5
2023-07-08T14:37:50.208Z,38.5
2023-07-08T14:42:56.252Z,38
2023-07-08T14:48:02.513Z,38
2023-07-08T14:53:08.445Z,38
2023-07-08T14:58:14.550Z,39
2023-07-08T15:03:20.995Z,45.5
2023-07-08T15:08:26.756Z,38
2023-07-08T15:13:32.910Z,41
2023-07-08T15:18:39.087Z,39
2023-07-08T15:23:45.017Z,36.5
2023-07-08T15:28:51.109Z,39
2023-07-08T15:33:57.483Z,44
2023-07-08T15:39:03.309Z,47
2023-07-08T15:44:09.634Z,50.5
2023-07-08T15:49:15.498Z,46
2023-07-08T15:54:21.616Z,48
2023-07-08T15:59:27.693Z,45
2023-07-08T16:04:33.810Z,41.5
2023-07-08T16:09:39.882Z,46.5
2023-07-08T16:14:45.989Z,46
2023-07-08T16:19:52.099Z,44.5
2023-07-08T16:24:58.185Z,47
2023-07-08T16:30:04.261Z,46.5
2023-07-08T16:35:10.352Z,47
2023-07-08T16:40:16.451Z,49
2023-07-08T16:45:22.596Z,46
2023-07-08T16:50:28.734Z,49
2023-07-08T16:55:34.751Z,50.5
2023-07-08T17:00:40.862Z,48
2023-07-08T17:05:46.927Z,48
2023-07-08T17:10:53.017Z,47.5
2023-07-08T17:15:59.162Z,50
2023-07-08T17:21:05.393Z,46.5
2023-07-08T17:26:11.308Z,48
2023-07-08T17:31:17.449Z,48.5
2023-07-08T17:36:23.517Z,48.5
2023-07-08T17:41:29.870Z,45
2023-07-08T17:46:35.747Z,54
2023-07-08T17:51:41.968Z,49
2023-07-08T17:56:47.886Z,50
2023-07-08T18:01:54.004Z,52
2023-07-08T18:07:00.090Z,52.5
2023-07-08T18:12:06.171Z,51
2023-07-08T18:17:12.264Z,52.5
2023-07-08T18:22:18.365Z,50.5
2023-07-08T18:27:24.466Z,52
2023-07-08T18:32:30.978Z,52.5
2023-07-08T18:37:36.654Z,50
2023-07-08T18:42:42.753Z,52
2023-07-08T18:47:48.891Z,52
2023-07-08T18:52:54.932Z,51
2023-07-08T18:58:01.029Z,51.5
2023-07-08T19:03:07.152Z,51
2023-07-08T19:08:13.226Z,50.5
2023-07-08T19:13:19.332Z,50
2023-07-08T19:18:25.412Z,49
2023-07-08T19:23:31.560Z,51
2023-07-08T19:28:37.614Z,49
2023-07-08T19:33:43.730Z,48
2023-07-08T19:38:49.801Z,47
2023-07-08T19:43:55.902Z,49.5
2023-07-08T19:49:01.984Z,50.5
2023-07-08T19:54:08.232Z,48
2023-07-08T19:59:14.159Z,48
2023-07-08T20:04:20.260Z,48.5
2023-07-08T20:09:26.599Z,48.5
2023-07-08T20:14:32.467Z,49
2023-07-08T20:19:38.573Z,48.5
2023-07-08T20:24:44.664Z,48
2023-07-08T20:29:50.743Z,45
2023-07-08T20:34:56.838Z,46
2023-07-08T20:40:02.961Z,46.5
2023-07-08T20:45:09.023Z,46
2023-07-08T20:50:15.108Z,46
2023-07-08T20:55:21.362Z,46.5
2023-07-08T21:00:27.556Z,46
2023-07-08T21:05:33.417Z,45.5
2023-07-08T21:10:39.525Z,46.5
2023-07-08T21:15:45.656Z,45.5
2023-07-08T21:20:51.747Z,45
2023-07-08T21:25:57.793Z,45.5
2023-07-08T21:31:03.905Z,45.5
2023-07-08T21:36:09.967Z,45.5
2023-07-08T21:41:16.081Z,45.5
2023-07-08T21:46:22.363Z,46
2023-07-08T21:51:28.260Z,46.5
2023-07-08T21:56:34.357Z,45.5
2023-07-08T22:01:40.770Z,47
2023-07-08T22:06:46.558Z,47
2023-07-08T22:11:52.657Z,47
2023-07-08T22:17:09.756Z,47.5
2023-07-08T22:22:04.851Z,48.5
2023-07-08T22:27:10.920Z,47
2023-07-08T22:32:16.992Z,48
2023-07-08T22:37:23.109Z,49
2023-07-08T22:42:29.217Z,47.5
2023-07-08T22:47:35.348Z,47.5
2023-07-08T22:52:41.390Z,50.5
2023-07-08T22:57:47.511Z,49.5
2023-07-08T23:02:53.636Z,47
2023-07-08T23:07:59.757Z,47.5
2023-07-08T23:13:05.941Z,47
2023-07-08T23:18:12.060Z,45.5
2023-07-08T23:23:18.141Z,45.5
2023-07-08T23:28:24.067Z,48
2023-07-08T23:33:30.169Z,48
2023-07-08T23:38:36.245Z,47.5
2023-07-08T23:43:42.357Z,46.5
2023-07-08T23:48:48.436Z,46.5
2023-07-08T23:53:54.541Z,46.5
2023-07-08T23:59:00.651Z,46
